sensor_id;sensor_type;location;lat;lon;timestamp;pressure;altitude;pressure_sealevel;temperature;humidity
12991;BME280;6560;57.692;11.958;2023-04-02T00:00:19;102000.53;;;9.36;100.00
12991;BME280;6560;57.692;11.958;2023-04-02T00:02:58;102002.78;;;9.58;100.00
12991;BME280;6560;57.692;11.958;2023-04-02T00:07:58;101976.34;;;9.48;100.00
12991;BME280;6560;57.692;11.958;2023-04-02T00:10:36;102015.41;;;9.35;100.00
12991;BME280;6560;57.692;11.958;2023-04-02T00:15:45;102020.19;;;9.39;100.00
12991;BME280;6560;57.692;11.958;2023-04-02T00:18:20;102010.91;;;9.51;100.00
12991;BME280;6560;57.692;11.958;2023-04-02T00:20:51;102024.50;;;9.47;100.00
12991;BME280;6560;57.692;11.958;2023-04-02T00:23:18;102032.88;;;9.26;100.00
12991;BME280;6560;57.692;11.958;2023-04-02T00:25:44;102037.53;;;9.29;100.00
12991;BME280;6560;57.692;11.958;2023-04-02T00:28:13;102040.03;;;9.10;100.00
12991;BME280;6560;57.692;11.958;2023-04-02T00:30:52;102032.88;;;9.35;100.00
12991;BME280;6560;57.692;11.958;2023-04-02T00:33:21;102049.28;;;9.32;100.00
12991;BME280;6560;57.692;11.958;2023-04-02T00:35:47;101988.03;;;8.99;100.00
12991;BME280;6560;57.692;11.958;2023-04-02T00:38:32;102015.41;;;9.35;100.00
12991;BME280;6560;57.692;11.958;2023-04-02T00:41:04;102052.53;;;9.55;100.00
12991;BME280;6560;57.692;11.958;2023-04-02T00:43:34;102039.97;;;9.53;100.00
12991;BME280;6560;57.692;11.958;2023-04-02T00:46:03;102001.00;;;9.14;100.00
12991;BME280;6560;57.692;11.958;2023-04-02T00:51:25;102053.91;;;9.69;100.00
12991;BME280;6560;57.692;11.958;2023-04-02T00:53:54;102038.47;;;9.29;100.00
12991;BME280;6560;57.692;11.958;2023-04-02T00:56:26;102078.22;;;9.32;100.00
12991;BME280;6560;57.692;11.958;2023-04-02T00:58:55;101925.81;;;8.48;100.00
12991;BME280;6560;57.692;11.958;2023-04-02T01:01:24;102076.41;;;9.31;100.00
12991;BME280;6560;57.692;11.958;2023-04-02T01:03:56;102079.34;;;10.13;100.00
12991;BME280;6560;57.692;11.958;2023-04-02T01:06:25;102087.34;;;9.79;100.00
12991;BME280;6560;57.692;11.958;2023-04-02T01:22:30;102095.69;;;9.92;100.00
12991;BME280;6560;57.692;11.958;2023-04-02T01:25:02;102098.84;;;9.71;100.00
12991;BME280;6560;57.692;11.958;2023-04-02T01:27:45;102095.09;;;10.48;100.00
12991;BME280;6560;57.692;11.958;2023-04-02T01:30:15;102109.66;;;9.91;100.00
12991;BME280;6560;57.692;11.958;2023-04-02T01:32:42;102109.75;;;10.18;100.00
12991;BME280;6560;57.692;11.958;2023-04-02T01:35:09;102085.22;;;9.32;100.00
12991;BME280;6560;57.692;11.958;2023-04-02T01:37:49;102081.34;;;9.54;100.00
12991;BME280;6560;57.692;11.958;2023-04-02T01:45:37;102059.06;;;9.42;100.00
12991;BME280;6560;57.692;11.958;2023-04-02T01:48:21;102127.66;;;9.69;100.00
12991;BME280;6560;57.692;11.958;2023-04-02T01:50:50;102041.56;;;9.08;100.00
12991;BME280;6560;57.692;11.958;2023-04-02T01:53:17;102144.94;;;9.07;100.00
12991;BME280;6560;57.692;11.958;2023-04-02T01:55:47;102111.13;;;8.77;100.00
12991;BME280;6560;57.692;11.958;2023-04-02T01:58:16;102080.84;;;8.89;100.00
12991;BME280;6560;57.692;11.958;2023-04-02T02:00:50;102129.41;;;8.84;100.00
12991;BME280;6560;57.692;11.958;2023-04-02T02:03:18;102047.09;;;8.26;100.00
12991;BME280;6560;57.692;11.958;2023-04-02T02:05:45;102154.94;;;8.85;100.00
12991;BME280;6560;57.692;11.958;2023-04-02T02:08:22;102096.31;;;8.95;100.00
12991;BME280;6560;57.692;11.958;2023-04-02T02:10:51;102127.63;;;9.26;100.00
12991;BME280;6560;57.692;11.958;2023-04-02T02:13:17;102137.59;;;8.87;100.00
12991;BME280;6560;57.692;11.958;2023-04-02T02:15:44;102157.03;;;9.22;100.00
12991;BME280;6560;57.692;11.958;2023-04-02T02:18:11;102162.47;;;9.24;100.00
12991;BME280;6560;57.692;11.958;2023-04-02T02:20:38;102166.59;;;9.04;100.00
12991;BME280;6560;57.692;11.958;2023-04-02T02:23:04;102173.34;;;9.44;100.00
12991;BME280;6560;57.692;11.958;2023-04-02T02:25:32;102132.84;;;8.92;100.00
12991;BME280;6560;57.692;11.958;2023-04-02T02:28:02;102174.72;;;9.40;100.00
12991;BME280;6560;57.692;11.958;2023-04-02T02:30:58;102179.47;;;9.10;100.00
12991;BME280;6560;57.692;11.958;2023-04-02T02:36:04;102159.09;;;8.83;100.00
12991;BME280;6560;57.692;11.958;2023-04-02T02:41:20;102197.78;;;8.84;100.00
12991;BME280;6560;57.692;11.958;2023-04-02T02:43:56;102187.16;;;8.58;100.00
12991;BME280;6560;57.692;11.958;2023-04-02T02:46:24;102200.72;;;8.87;100.00
12991;BME280;6560;57.692;11.958;2023-04-02T02:48:52;102191.28;;;9.31;100.00
12991;BME280;6560;57.692;11.958;2023-04-02T02:51:44;102196.00;;;8.67;100.00
12991;BME280;6560;57.692;11.958;2023-04-02T02:54:11;102221.25;;;8.74;100.00
12991;BME280;6560;57.692;11.958;2023-04-02T02:56:42;102195.00;;;9.58;100.00
12991;BME280;6560;57.692;11.958;2023-04-02T02:59:10;102149.00;;;8.70;100.00
12991;BME280;6560;57.692;11.958;2023-04-02T03:01:39;102082.22;;;8.11;100.00
12991;BME280;6560;57.692;11.958;2023-04-02T03:04:05;102234.63;;;9.34;100.00
12991;BME280;6560;57.692;11.958;2023-04-02T03:06:35;102231.06;;;9.25;100.00
12991;BME280;6560;57.692;11.958;2023-04-02T03:09:21;102074.63;;;8.71;100.00
12991;BME280;6560;57.692;11.958;2023-04-02T03:12:02;102243.66;;;9.53;100.00
12991;BME280;6560;57.692;11.958;2023-04-02T03:14:34;101962.84;;;8.25;100.00
12991;BME280;6560;57.692;11.958;2023-04-02T03:17:13;102096.84;;;8.66;100.00
12991;BME280;6560;57.692;11.958;2023-04-02T03:20:12;102228.31;;;9.49;100.00
12991;BME280;6560;57.692;11.958;2023-04-02T03:22:46;102251.78;;;9.22;100.00
12991;BME280;6560;57.692;11.958;2023-04-02T03:25:23;102246.41;;;9.46;100.00
12991;BME280;6560;57.692;11.958;2023-04-02T03:27:53;102260.47;;;9.30;100.00
12991;BME280;6560;57.692;11.958;2023-04-02T03:30:37;102261.06;;;9.18;100.00
12991;BME280;6560;57.692;11.958;2023-04-02T03:33:11;102263.28;;;8.65;100.00
12991;BME280;6560;57.692;11.958;2023-04-02T03:38:26;102266.69;;;8.09;100.00
12991;BME280;6560;57.692;11.958;2023-04-02T03:43:31;102258.13;;;8.18;100.00
12991;BME280;6560;57.692;11.958;2023-04-02T03:46:21;102288.75;;;8.58;100.00
12991;BME280;6560;57.692;11.958;2023-04-02T03:48:52;102287.72;;;8.64;100.00
12991;BME280;6560;57.692;11.958;2023-04-02T03:52:01;102296.97;;;9.27;100.00
12991;BME280;6560;57.692;11.958;2023-04-02T03:54:20;102295.78;;;9.32;100.00
12991;BME280;6560;57.692;11.958;2023-04-02T03:56:46;102300.06;;;9.23;100.00
12991;BME280;6560;57.692;11.958;2023-04-02T03:59:38;102298.44;;;9.07;100.00
12991;BME280;6560;57.692;11.958;2023-04-02T04:03:02;102303.53;;;9.30;100.00
12991;BME280;6560;57.692;11.958;2023-04-02T04:05:23;102329.59;;;8.87;100.00
12991;BME280;6560;57.692;11.958;2023-04-02T04:07:52;102319.84;;;9.10;100.00
12991;BME280;6560;57.692;11.958;2023-04-02T04:10:23;102280.47;;;8.70;100.00
12991;BME280;6560;57.692;11.958;2023-04-02T04:12:51;102319.16;;;8.71;100.00
12991;BME280;6560;57.692;11.958;2023-04-02T04:15:47;102325.38;;;9.05;100.00
12991;BME280;6560;57.692;11.958;2023-04-02T04:18:18;102327.91;;;9.20;100.00
12991;BME280;6560;57.692;11.958;2023-04-02T04:20:56;102331.72;;;9.40;100.00
12991;BME280;6560;57.692;11.958;2023-04-02T04:23:33;102335.44;;;9.42;100.00
12991;BME280;6560;57.692;11.958;2023-04-02T04:31:48;102345.00;;;8.35;100.00
12991;BME280;6560;57.692;11.958;2023-04-02T04:34:28;102348.22;;;8.17;100.00
12991;BME280;6560;57.692;11.958;2023-04-02T04:36:59;102340.69;;;8.05;100.00
12991;BME280;6560;57.692;11.958;2023-04-02T04:42:02;102369.13;;;8.71;100.00
12991;BME280;6560;57.692;11.958;2023-04-02T04:44:44;102363.03;;;8.64;100.00
12991;BME280;6560;57.692;11.958;2023-04-02T04:47:36;102274.16;;;8.13;100.00
12991;BME280;6560;57.692;11.958;2023-04-02T04:50:11;102372.25;;;8.60;100.00
12991;BME280;6560;57.692;11.958;2023-04-02T04:52:40;102359.00;;;8.67;100.00
12991;BME280;6560;57.692;11.958;2023-04-02T04:57:54;102384.13;;;8.72;100.00
12991;BME280;6560;57.692;11.958;2023-04-02T05:00:29;102399.47;;;8.76;100.00
12991;BME280;6560;57.692;11.958;2023-04-02T05:03:12;102375.91;;;8.69;100.00
12991;BME280;6560;57.692;11.958;2023-04-02T05:05:41;102368.09;;;8.78;100.00
12991;BME280;6560;57.692;11.958;2023-04-02T05:08:20;102401.81;;;8.82;100.00
12991;BME280;6560;57.692;11.958;2023-04-02T05:10:54;102409.16;;;8.93;100.00
12991;BME280;6560;57.692;11.958;2023-04-02T05:13:30;102413.88;;;8.80;100.00
12991;BME280;6560;57.692;11.958;2023-04-02T05:16:20;102411.50;;;8.74;100.00
12991;BME280;6560;57.692;11.958;2023-04-02T05:18:55;102390.81;;;8.77;100.00
12991;BME280;6560;57.692;11.958;2023-04-02T05:21:39;102431.16;;;8.94;100.00
12991;BME280;6560;57.692;11.958;2023-04-02T05:27:03;102376.59;;;9.33;100.00
12991;BME280;6560;57.692;11.958;2023-04-02T05:29:34;102432.69;;;9.40;100.00
12991;BME280;6560;57.692;11.958;2023-04-02T05:32:21;102440.81;;;9.50;100.00
12991;BME280;6560;57.692;11.958;2023-04-02T05:34:52;102326.06;;;9.19;100.00
12991;BME280;6560;57.692;11.958;2023-04-02T05:37:21;102314.53;;;9.02;100.00
12991;BME280;6560;57.692;11.958;2023-04-02T05:40:14;102424.94;;;9.75;100.00
12991;BME280;6560;57.692;11.958;2023-04-02T05:42:47;102448.03;;;10.10;100.00
12991;BME280;6560;57.692;11.958;2023-04-02T05:45:36;102459.88;;;10.31;100.00
12991;BME280;6560;57.692;11.958;2023-04-02T05:48:20;102459.78;;;10.81;100.00
12991;BME280;6560;57.692;11.958;2023-04-02T05:50:51;102335.63;;;10.02;100.00
12991;BME280;6560;57.692;11.958;2023-04-02T05:55:58;102467.59;;;11.58;99.67
12991;BME280;6560;57.692;11.958;2023-04-02T05:58:43;102376.78;;;11.75;97.29
12991;BME280;6560;57.692;11.958;2023-04-02T06:04:26;102486.91;;;11.23;95.06
12991;BME280;6560;57.692;11.958;2023-04-02T06:07:07;102477.16;;;12.20;93.69
12991;BME280;6560;57.692;11.958;2023-04-02T06:09:37;102486.25;;;12.05;88.17
12991;BME280;6560;57.692;11.958;2023-04-02T06:14:40;102473.50;;;11.56;91.58
12991;BME280;6560;57.692;11.958;2023-04-02T06:17:10;102398.94;;;10.45;92.52
12991;BME280;6560;57.692;11.958;2023-04-02T06:19:38;102480.19;;;11.44;92.84
12991;BME280;6560;57.692;11.958;2023-04-02T06:22:15;102470.34;;;10.81;89.60
12991;BME280;6560;57.692;11.958;2023-04-02T06:24:44;102541.84;;;10.58;88.36
12991;BME280;6560;57.692;11.958;2023-04-02T06:27:13;102529.56;;;10.42;89.33
12991;BME280;6560;57.692;11.958;2023-04-02T06:29:44;102515.97;;;10.63;87.76
12991;BME280;6560;57.692;11.958;2023-04-02T06:32:12;102499.47;;;10.57;86.74
12991;BME280;6560;57.692;11.958;2023-04-02T06:34:40;102517.81;;;11.24;89.81
12991;BME280;6560;57.692;11.958;2023-04-02T06:37:33;102517.25;;;12.33;83.97
12991;BME280;6560;57.692;11.958;2023-04-02T06:40:03;102502.59;;;13.68;81.60
12991;BME280;6560;57.692;11.958;2023-04-02T06:42:48;102511.97;;;14.52;75.42
12991;BME280;6560;57.692;11.958;2023-04-02T06:45:25;102515.31;;;15.00;76.56
12991;BME280;6560;57.692;11.958;2023-04-02T06:47:54;102515.31;;;15.00;76.56
12991;BME280;6560;57.692;11.958;2023-04-02T06:50:29;102480.31;;;15.26;70.07
12991;BME280;6560;57.692;11.958;2023-04-02T06:53:04;102475.31;;;14.99;67.84
12991;BME280;6560;57.692;11.958;2023-04-02T06:55:51;102536.25;;;15.28;63.17
12991;BME280;6560;57.692;11.958;2023-04-02T06:58:18;102498.16;;;15.91;69.98
12991;BME280;6560;57.692;11.958;2023-04-02T07:00:46;102524.63;;;16.77;68.49
12991;BME280;6560;57.692;11.958;2023-04-02T07:03:16;102512.13;;;16.87;62.07
12991;BME280;6560;57.692;11.958;2023-04-02T07:05:44;102455.09;;;16.62;57.02
12991;BME280;6560;57.692;11.958;2023-04-02T07:08:09;102468.41;;;16.07;56.69
12991;BME280;6560;57.692;11.958;2023-04-02T07:10:35;102509.06;;;16.93;62.08
12991;BME280;6560;57.692;11.958;2023-04-02T07:13:01;102495.91;;;17.64;57.74
12991;BME280;6560;57.692;11.958;2023-04-02T07:15:27;102419.00;;;16.65;55.26
12991;BME280;6560;57.692;11.958;2023-04-02T07:17:53;102540.25;;;17.05;55.62
12991;BME280;6560;57.692;11.958;2023-04-02T07:22:50;102534.59;;;17.59;51.98
12991;BME280;6560;57.692;11.958;2023-04-02T07:25:16;102502.94;;;17.29;48.41
12991;BME280;6560;57.692;11.958;2023-04-02T07:27:42;102545.44;;;18.20;53.22
12991;BME280;6560;57.692;11.958;2023-04-02T07:30:07;102542.47;;;17.23;49.90
12991;BME280;6560;57.692;11.958;2023-04-02T07:32:33;102535.41;;;17.46;48.84
12991;BME280;6560;57.692;11.958;2023-04-02T07:34:58;102496.59;;;16.70;48.34
12991;BME280;6560;57.692;11.958;2023-04-02T07:37:24;102566.19;;;17.08;48.72
12991;BME280;6560;57.692;11.958;2023-04-02T07:39:50;102568.16;;;16.55;46.92
12991;BME280;6560;57.692;11.958;2023-04-02T07:42:16;102570.88;;;16.02;45.62
12991;BME280;6560;57.692;11.958;2023-04-02T07:44:42;102578.75;;;16.00;45.02
12991;BME280;6560;57.692;11.958;2023-04-02T07:47:07;102579.88;;;16.14;45.70
12991;BME280;6560;57.692;11.958;2023-04-02T07:49:34;102579.69;;;16.01;44.30
12991;BME280;6560;57.692;11.958;2023-04-02T07:52:00;102537.78;;;15.98;44.48
12991;BME280;6560;57.692;11.958;2023-04-02T07:54:25;102502.84;;;15.83;43.50
12991;BME280;6560;57.692;11.958;2023-04-02T07:56:51;102596.75;;;16.46;41.95
12991;BME280;6560;57.692;11.958;2023-04-02T07:59:16;102585.88;;;16.11;41.74
12991;BME280;6560;57.692;11.958;2023-04-02T08:01:42;102616.06;;;15.70;41.47
12991;BME280;6560;57.692;11.958;2023-04-02T08:04:16;102518.78;;;15.62;42.97
12991;BME280;6560;57.692;11.958;2023-04-02T08:06:41;102589.25;;;15.46;40.81
12991;BME280;6560;57.692;11.958;2023-04-02T08:09:07;102607.56;;;15.43;41.53
12991;BME280;6560;57.692;11.958;2023-04-02T08:11:32;102618.34;;;15.65;40.94
12991;BME280;6560;57.692;11.958;2023-04-02T08:13:58;102585.69;;;15.36;40.81
12991;BME280;6560;57.692;11.958;2023-04-02T08:16:23;102580.91;;;14.81;39.39
12991;BME280;6560;57.692;11.958;2023-04-02T08:18:50;102637.97;;;14.66;39.68
12991;BME280;6560;57.692;11.958;2023-04-02T08:21:15;102616.34;;;14.32;38.09
12991;BME280;6560;57.692;11.958;2023-04-02T08:23:41;102636.34;;;14.48;38.62
12991;BME280;6560;57.692;11.958;2023-04-02T08:26:07;102541.75;;;14.19;39.15
12991;BME280;6560;57.692;11.958;2023-04-02T08:28:33;102616.22;;;14.90;38.92
12991;BME280;6560;57.692;11.958;2023-04-02T08:30:59;102611.31;;;15.25;38.71
12991;BME280;6560;57.692;11.958;2023-04-02T08:33:25;102638.81;;;15.05;37.41
12991;BME280;6560;57.692;11.958;2023-04-02T08:35:51;102641.88;;;14.90;37.39
12991;BME280;6560;57.692;11.958;2023-04-02T08:38:18;102649.28;;;14.63;36.65
12991;BME280;6560;57.692;11.958;2023-04-02T08:40:48;102616.72;;;14.17;35.62
12991;BME280;6560;57.692;11.958;2023-04-02T08:48:45;102588.16;;;13.56;35.66
12991;BME280;6560;57.692;11.958;2023-04-02T08:51:25;102589.66;;;13.92;34.94
12991;BME280;6560;57.692;11.958;2023-04-02T08:54:01;102631.84;;;14.28;36.62
12991;BME280;6560;57.692;11.958;2023-04-02T08:56:39;102634.94;;;14.04;35.39
12991;BME280;6560;57.692;11.958;2023-04-02T08:59:34;102670.72;;;14.95;34.88
12991;BME280;6560;57.692;11.958;2023-04-02T09:04:39;102668.94;;;14.75;34.60
12991;BME280;6560;57.692;11.958;2023-04-02T09:07:10;102609.09;;;13.82;34.07
12991;BME280;6560;57.692;11.958;2023-04-02T09:09:37;102676.31;;;14.59;36.63
12991;BME280;6560;57.692;11.958;2023-04-02T09:12:03;102647.19;;;14.41;36.02
12991;BME280;6560;57.692;11.958;2023-04-02T09:14:40;102682.81;;;14.53;36.16
12991;BME280;6560;57.692;11.958;2023-04-02T09:17:16;102683.81;;;14.84;36.31
12991;BME280;6560;57.692;11.958;2023-04-02T09:19:43;102676.72;;;14.35;36.84
12991;BME280;6560;57.692;11.958;2023-04-02T09:22:19;102558.44;;;14.18;37.24
12991;BME280;6560;57.692;11.958;2023-04-02T09:24:53;102688.75;;;14.21;37.08
12991;BME280;6560;57.692;11.958;2023-04-02T09:27:25;102690.91;;;15.24;37.83
12991;BME280;6560;57.692;11.958;2023-04-02T09:33:00;102664.31;;;14.83;37.55
12991;BME280;6560;57.692;11.958;2023-04-02T09:35:28;102700.66;;;14.74;38.33
12991;BME280;6560;57.692;11.958;2023-04-02T09:43:20;102692.00;;;15.56;39.03
12991;BME280;6560;57.692;11.958;2023-04-02T09:45:59;102696.75;;;14.99;38.62
12991;BME280;6560;57.692;11.958;2023-04-02T09:48:28;102713.25;;;14.66;38.74
12991;BME280;6560;57.692;11.958;2023-04-02T09:51:19;102726.75;;;14.49;38.52
12991;BME280;6560;57.692;11.958;2023-04-02T09:56:26;102699.81;;;14.55;38.91
12991;BME280;6560;57.692;11.958;2023-04-02T10:06:57;102734.56;;;14.97;38.01
12991;BME280;6560;57.692;11.958;2023-04-02T10:09:29;102720.28;;;15.25;38.92
12991;BME280;6560;57.692;11.958;2023-04-02T10:11:55;102716.31;;;15.20;38.32
12991;BME280;6560;57.692;11.958;2023-04-02T10:14:43;102747.66;;;15.14;37.65
12991;BME280;6560;57.692;11.958;2023-04-02T10:17:34;102717.28;;;14.82;37.88
12991;BME280;6560;57.692;11.958;2023-04-02T10:20:17;102735.16;;;15.03;37.28
12991;BME280;6560;57.692;11.958;2023-04-02T10:22:45;102736.91;;;15.23;38.21
12991;BME280;6560;57.692;11.958;2023-04-02T10:25:16;102743.66;;;15.09;38.44
12991;BME280;6560;57.692;11.958;2023-04-02T10:28:07;102749.63;;;15.06;38.21
12991;BME280;6560;57.692;11.958;2023-04-02T10:33:39;102681.88;;;15.11;37.53
12991;BME280;6560;57.692;11.958;2023-04-02T10:39:12;102752.75;;;15.82;38.40
12991;BME280;6560;57.692;11.958;2023-04-02T10:52:42;102777.81;;;15.25;38.40
12991;BME280;6560;57.692;11.958;2023-04-02T10:55:23;102777.66;;;15.13;39.05
12991;BME280;6560;57.692;11.958;2023-04-02T10:58:16;102620.81;;;14.42;38.08
12991;BME280;6560;57.692;11.958;2023-04-02T11:00:44;102806.31;;;14.97;39.04
12991;BME280;6560;57.692;11.958;2023-04-02T11:03:15;102771.75;;;15.46;38.77
12991;BME280;6560;57.692;11.958;2023-04-02T11:05:45;102784.88;;;15.24;37.90
12991;BME280;6560;57.692;11.958;2023-04-02T11:08:18;102768.34;;;15.77;38.30
12991;BME280;6560;57.692;11.958;2023-04-02T11:10:53;102775.13;;;15.84;38.09
12991;BME280;6560;57.692;11.958;2023-04-02T11:15:57;102767.38;;;14.87;37.82
12991;BME280;6560;57.692;11.958;2023-04-02T11:18:26;102782.16;;;15.83;38.56
12991;BME280;6560;57.692;11.958;2023-04-02T11:21:16;102620.88;;;15.23;38.26
12991;BME280;6560;57.692;11.958;2023-04-02T11:23:59;102782.56;;;15.78;36.85
12991;BME280;6560;57.692;11.958;2023-04-02T11:26:35;102786.00;;;15.57;38.06
12991;BME280;6560;57.692;11.958;2023-04-02T11:29:11;102757.72;;;15.87;37.51
12991;BME280;6560;57.692;11.958;2023-04-02T11:31:38;102785.66;;;15.23;37.10
12991;BME280;6560;57.692;11.958;2023-04-02T11:34:03;102760.47;;;15.48;38.23
12991;BME280;6560;57.692;11.958;2023-04-02T11:36:59;102796.81;;;15.78;37.25
12991;BME280;6560;57.692;11.958;2023-04-02T11:39:51;102790.00;;;15.72;38.22
12991;BME280;6560;57.692;11.958;2023-04-02T11:44:51;102808.34;;;15.69;37.55
12991;BME280;6560;57.692;11.958;2023-04-02T11:47:22;102799.34;;;15.87;38.63
12991;BME280;6560;57.692;11.958;2023-04-02T11:52:23;102833.53;;;15.33;38.63
12991;BME280;6560;57.692;11.958;2023-04-02T11:55:02;102821.91;;;15.02;38.86
12991;BME280;6560;57.692;11.958;2023-04-02T12:00:30;102813.69;;;15.79;38.35
12991;BME280;6560;57.692;11.958;2023-04-02T12:06:21;102816.19;;;14.79;37.61
12991;BME280;6560;57.692;11.958;2023-04-02T12:11:38;102721.22;;;15.26;38.09
12991;BME280;6560;57.692;11.958;2023-04-02T12:16:59;102828.16;;;15.13;38.13
12991;BME280;6560;57.692;11.958;2023-04-02T12:19:25;102839.09;;;15.26;38.14
12991;BME280;6560;57.692;11.958;2023-04-02T12:21:52;102840.50;;;15.02;38.63
12991;BME280;6560;57.692;11.958;2023-04-02T12:24:22;102814.78;;;14.83;38.86
12991;BME280;6560;57.692;11.958;2023-04-02T12:27:06;102743.41;;;15.26;38.17
12991;BME280;6560;57.692;11.958;2023-04-02T12:29:33;102784.81;;;15.04;38.85
12991;BME280;6560;57.692;11.958;2023-04-02T12:31:58;102802.19;;;15.39;38.27
12991;BME280;6560;57.692;11.958;2023-04-02T12:34:27;102799.59;;;15.80;37.04
12991;BME280;6560;57.692;11.958;2023-04-02T12:36:57;102825.38;;;16.31;36.95
12991;BME280;6560;57.692;11.958;2023-04-02T12:39:24;102800.66;;;14.84;37.35
12991;BME280;6560;57.692;11.958;2023-04-02T12:41:50;102802.03;;;15.28;38.59
12991;BME280;6560;57.692;11.958;2023-04-02T12:44:21;102838.06;;;15.44;37.96
12991;BME280;6560;57.692;11.958;2023-04-02T12:46:48;102766.97;;;15.42;37.77
12991;BME280;6560;57.692;11.958;2023-04-02T12:51:51;102788.28;;;15.82;37.01
12991;BME280;6560;57.692;11.958;2023-04-02T12:54:19;102807.88;;;15.34;37.36
12991;BME280;6560;57.692;11.958;2023-04-02T12:56:46;102825.91;;;15.77;36.95
12991;BME280;6560;57.692;11.958;2023-04-02T12:59:33;102829.41;;;15.27;38.15
12991;BME280;6560;57.692;11.958;2023-04-02T13:02:02;102732.28;;;14.81;38.06
12991;BME280;6560;57.692;11.958;2023-04-02T13:04:27;102839.97;;;15.06;36.86
12991;BME280;6560;57.692;11.958;2023-04-02T13:06:54;102841.09;;;15.29;37.15
12991;BME280;6560;57.692;11.958;2023-04-02T13:09:42;102836.03;;;16.11;36.90
12991;BME280;6560;57.692;11.958;2023-04-02T13:12:41;102838.75;;;15.42;37.78
12991;BME280;6560;57.692;11.958;2023-04-02T13:15:19;102827.38;;;15.63;37.29
12991;BME280;6560;57.692;11.958;2023-04-02T13:18:00;102844.81;;;15.31;37.69
12991;BME280;6560;57.692;11.958;2023-04-02T13:20:40;102839.75;;;15.24;37.43
12991;BME280;6560;57.692;11.958;2023-04-02T13:25:54;102847.88;;;15.84;36.39
12991;BME280;6560;57.692;11.958;2023-04-02T13:28:20;102809.81;;;15.65;37.17
12991;BME280;6560;57.692;11.958;2023-04-02T13:30:46;102785.03;;;15.36;37.89
12991;BME280;6560;57.692;11.958;2023-04-02T13:33:13;102843.22;;;15.23;36.60
12991;BME280;6560;57.692;11.958;2023-04-02T13:35:38;102845.50;;;15.87;37.51
12991;BME280;6560;57.692;11.958;2023-04-02T13:38:04;102759.09;;;15.43;37.28
12991;BME280;6560;57.692;11.958;2023-04-02T13:40:31;102851.59;;;15.27;36.05
12991;BME280;6560;57.692;11.958;2023-04-02T13:42:57;102848.78;;;15.54;36.55
12991;BME280;6560;57.692;11.958;2023-04-02T13:45:26;102857.31;;;15.22;36.67
12991;BME280;6560;57.692;11.958;2023-04-02T13:47:53;102861.22;;;15.45;36.02
12991;BME280;6560;57.692;11.958;2023-04-02T13:50:22;102773.41;;;15.94;36.49
12991;BME280;6560;57.692;11.958;2023-04-02T13:52:51;102849.81;;;16.68;36.86
12991;BME280;6560;57.692;11.958;2023-04-02T13:55:22;102853.50;;;16.08;35.69
12991;BME280;6560;57.692;11.958;2023-04-02T13:57:49;102848.91;;;16.37;36.01
12991;BME280;6560;57.692;11.958;2023-04-02T14:00:15;102833.50;;;16.13;35.90
12991;BME280;6560;57.692;11.958;2023-04-02T14:02:46;102834.28;;;16.32;36.54
12991;BME280;6560;57.692;11.958;2023-04-02T14:05:31;102756.47;;;16.14;36.28
12991;BME280;6560;57.692;11.958;2023-04-02T14:08:26;102859.03;;;15.60;35.85
12991;BME280;6560;57.692;11.958;2023-04-02T14:30:25;102755.94;;;15.47;36.32
12991;BME280;6560;57.692;11.958;2023-04-02T14:35:44;102802.25;;;15.80;36.54
12991;BME280;6560;57.692;11.958;2023-04-02T14:41:03;102866.59;;;15.27;36.69
12991;BME280;6560;57.692;11.958;2023-04-02T14:43:44;102874.50;;;16.25;37.32
12991;BME280;6560;57.692;11.958;2023-04-02T14:46:10;102781.22;;;16.55;37.24
12991;BME280;6560;57.692;11.958;2023-04-02T14:49:12;102866.00;;;16.81;36.79
12991;BME280;6560;57.692;11.958;2023-04-02T14:51:53;102864.34;;;16.51;36.95
12991;BME280;6560;57.692;11.958;2023-04-02T14:54:43;102828.59;;;15.87;37.14
12991;BME280;6560;57.692;11.958;2023-04-02T14:57:19;102859.72;;;15.98;37.49
12991;BME280;6560;57.692;11.958;2023-04-02T15:02:49;102868.09;;;16.33;36.84
12991;BME280;6560;57.692;11.958;2023-04-02T15:07:49;102860.72;;;17.13;36.28
12991;BME280;6560;57.692;11.958;2023-04-02T15:10:33;102881.19;;;16.92;35.39
12991;BME280;6560;57.692;11.958;2023-04-02T15:13:05;102830.50;;;16.50;36.08
12991;BME280;6560;57.692;11.958;2023-04-02T15:15:41;102869.19;;;16.87;36.63
12991;BME280;6560;57.692;11.958;2023-04-02T15:18:12;102862.63;;;17.04;36.26
12991;BME280;6560;57.692;11.958;2023-04-02T15:26:18;102891.78;;;16.10;35.66
12991;BME280;6560;57.692;11.958;2023-04-02T15:28:53;102793.53;;;14.83;36.85
12991;BME280;6560;57.692;11.958;2023-04-02T15:31:26;102795.66;;;14.97;37.09
12991;BME280;6560;57.692;11.958;2023-04-02T15:42:12;102909.44;;;15.11;36.25
12991;BME280;6560;57.692;11.958;2023-04-02T15:48:04;102900.25;;;15.36;36.55
12991;BME280;6560;57.692;11.958;2023-04-02T15:59:38;102803.78;;;14.98;36.66
12991;BME280;6560;57.692;11.958;2023-04-02T16:10:40;102929.81;;;15.78;37.53
12991;BME280;6560;57.692;11.958;2023-04-02T16:13:33;102918.97;;;15.57;38.43
12991;BME280;6560;57.692;11.958;2023-04-02T16:19:04;102934.34;;;15.50;36.56
12991;BME280;6560;57.692;11.958;2023-04-02T16:21:39;102915.66;;;15.69;37.06
12991;BME280;6560;57.692;11.958;2023-04-02T16:24:11;102794.22;;;15.39;37.46
12991;BME280;6560;57.692;11.958;2023-04-02T16:36:01;102953.34;;;15.74;37.66
12991;BME280;6560;57.692;11.958;2023-04-02T16:58:22;102972.41;;;15.99;37.17
12991;BME280;6560;57.692;11.958;2023-04-02T17:01:13;102976.44;;;15.36;37.33
12991;BME280;6560;57.692;11.958;2023-04-02T17:09:18;102988.66;;;15.63;37.28
12991;BME280;6560;57.692;11.958;2023-04-02T17:11:52;102970.03;;;15.34;37.90
12991;BME280;6560;57.692;11.958;2023-04-02T17:14:37;102964.53;;;15.51;37.69